EDT,Max TemperatureF,Mean TemperatureF,Min TemperatureF,Max Dew PointF,MeanDew PointF,Min DewpointF,Max Humidity, Mean Humidity, Min Humidity, Max Sea Level PressureIn, Mean Sea Level PressureIn, Min Sea Level PressureIn, Max VisibilityMiles, Mean VisibilityMiles, Min VisibilityMiles, Max Wind SpeedMPH, Mean Wind SpeedMPH, Max Gust SpeedMPH,PrecipitationIn, CloudCover, Events, WindDirDegrees
2011-10-1,47,44,40,43,38,34,89,80,70,30.16,30.06,29.95,10,10,3,14,5,20,T,7,Rain,308
2011-10-2,59,49,38,39,36,34,92,66,40,30.17,30.12,30.07,10,10,10,13,5,18,0.00,3,,290
2011-10-3,65,53,41,45,39,34,76,61,46,30.20,30.15,30.08,10,10,10,9,3,15,0.00,4,,278
2011-10-4,73,60,46,50,45,42,86,63,40,30.31,30.25,30.19,10,10,10,7,1,10,0.00,0,,265
2011-10-5,76,63,50,53,50,46,96,67,38,30.32,30.28,30.23,10,10,4,7,1,12,0.00,0,,113
2011-10-6,81,68,55,52,49,42,83,55,26,30.31,30.28,30.25,10,10,10,6,1,9,0.00,0,,75
2011-10-7,80,67,53,56,52,50,89,63,36,30.40,30.33,30.28,10,10,9,6,1,10,0.00,0,,70
2011-10-8,78,67,55,53,49,44,80,57,33,30.45,30.38,30.34,10,10,10,7,1,9,0.00,0,,117
2011-10-9,71,63,55,51,48,46,77,61,44,30.38,30.32,30.26,10,10,10,6,2,12,0.00,0,,96
2011-10-10,78,69,59,52,49,46,72,54,36,30.27,30.18,30.08,10,10,10,8,2,14,0.00,0,,-1
2011-10-11,71,64,56,56,51,46,93,71,48,30.09,30.02,29.95,10,10,7,7,1,16,0.18,7,Rain,130
2011-10-12,65,60,55,56,54,53,93,83,73,29.96,29.88,29.77,10,6,0,5,0,13,0.06,7,Fog-Rain,100
2011-10-13,66,62,57,63,58,54,93,89,84,29.76,29.62,29.51,10,5,0,8,1,14,0.35,8,Fog-Rain-Thunderstorm,206
2011-10-14,68,60,51,55,45,31,96,63,29,29.82,29.69,29.58,10,9,4,21,7,35,0.03,4,Rain,258
2011-10-15,66,57,47,39,35,31,71,50,28,30.06,29.96,29.83,10,10,10,17,6,30,0.00,1,,255
2011-10-16,79,63,46,47,40,36,71,50,28,30.11,29.99,29.85,10,10,10,15,4,25,0.00,1,,220
2011-10-17,74,66,57,47,42,35,57,43,29,29.99,29.89,29.84,10,10,10,13,3,25,0.00,3,,297
2011-10-18,80,67,53,55,45,33,80,58,36,29.84,29.70,29.55,10,10,10,16,3,25,0.04,2,Thunderstorm,71
2011-10-19,55,48,41,53,47,39,96,93,89,29.63,29.45,29.38,10,3,0,16,4,32,1.88,8,Fog-Rain,264
2011-10-20,45,42,39,39,38,36,93,85,76,30.00,29.66,29.47,10,9,3,14,6,29,0.19,8,Rain,233
2011-10-21,57,49,41,38,35,33,86,67,47,30.14,30.09,30.01,10,10,10,12,2,17,0.00,3,,259
2011-10-22,62,50,37,40,35,33,92,64,36,30.20,30.14,30.11,10,10,8,7,1,14,0.00,0,,180
2011-10-23,66,53,40,41,36,34,82,58,34,30.15,30.10,30.07,10,10,10,6,1,10,0.00,1,,186
2011-10-24,71,60,48,50,43,39,77,57,37,30.19,30.10,30.04,10,10,5,14,4,22,0.02,3,Rain,278
2011-10-25,74,60,45,46,40,34,86,56,26,30.27,30.16,30.03,10,10,10,7,2,10,0.00,0,,170
2011-10-26,74,64,54,56,51,39,93,67,40,30.03,29.92,29.83,10,6,0,16,3,25,0.32,6,Fog-Rain,199
2011-10-27,64,53,42,54,48,40,93,73,52,30.10,29.89,29.76,10,6,1,14,4,21,0.57,8,Rain,290
2011-10-28,42,38,33,38,34,30,96,89,82,30.14,30.08,30.04,10,6,2,7,2,15,0.59,7,Rain-Snow,33
2011-10-29,54,45,35,36,34,30,92,68,44,30.16,30.10,30.04,10,7,0,10,3,17,0.02,5,Fog-Rain,298
2011-10-30,58,46,33,35,26,16,82,51,20,30.30,30.22,30.16,10,10,10,8,2,10,0.00,0,,191
2011-10-31,57,49,40,36,31,26,60,52,43,30.20,30.17,30.12,10,10,10,12,3,18,T,5,,176